Time;durP1;ratioP1;P1;durP2;ratioP2;P2;SDS_P1;SDS_P2;PMS_P1;PMS_P2;Temp;Humidity;BMP_temperature;BMP_pressure;BME280_temperature;BME280_humidity;BME280_pressure;Samples;Min_cycle;Max_cycle;Signal;HPM_P1;HPM_P2
2022/06/08 00:01:10;;;;;;;0.20;0.20;;;15.50;97.40;;;;;;5073087;28;20020;-94
2022/06/08 00:03:47;;;;;;;0.20;0.20;;;15.40;97.40;;;;;;5072870;28;20040;-95
2022/06/08 00:06:14;;;;;;;0.32;0.15;;;15.40;97.80;;;;;;5072963;28;20033;-94
2022/06/08 00:08:40;;;;;;;0.10;0.10;;;15.40;97.80;;;;;;5072774;28;20497;-94
2022/06/08 00:11:06;;;;;;;0.25;0.13;;;15.40;97.70;;;;;;5073005;28;20028;-95
2022/06/08 00:13:32;;;;;;;0.10;0.10;;;15.30;98.70;;;;;;5072914;28;20028;-94
2022/06/08 00:15:58;;;;;;;0.40;0.40;;;15.30;98.30;;;;;;5072845;28;20031;-94
2022/06/08 00:18:24;;;;;;;0.10;0.10;;;15.30;98.40;;;;;;5073158;28;20020;-93
2022/06/08 00:20:50;;;;;;;0.08;0.08;;;15.30;98.30;;;;;;5074698;28;20524;-94
2022/06/08 00:23:16;;;;;;;0.10;0.10;;;15.30;98.90;;;;;;5076475;28;20053;-94
2022/06/08 00:25:42;;;;;;;0.50;0.50;;;15.20;98.80;;;;;;5076706;28;20031;-94
2022/06/08 00:28:08;;;;;;;0.00;0.00;;;15.20;98.70;;;;;;5077071;28;20025;-95
2022/06/08 00:30:34;;;;;;;0.50;0.30;;;15.20;98.60;;;;;;5076338;28;20059;-94
2022/06/08 00:33:00;;;;;;;0.03;0.03;;;15.10;99.00;;;;;;5076544;28;20036;-93
2022/06/08 00:35:26;;;;;;;0.47;0.47;;;15.10;99.30;;;;;;5059786;28;20016;-93
2022/06/08 00:37:52;;;;;;;0.08;0.08;;;15.10;99.10;;;;;;5077330;28;20021;-93
2022/06/08 00:40:21;;;;;;;0.00;0.00;;;15.10;99.30;;;;;;5060076;28;20363;-94
2022/06/08 00:42:49;;;;;;;0.00;0.00;;;15.10;99.40;;;;;;5059764;28;20371;-94
2022/06/08 00:45:19;;;;;;;0.10;0.10;;;15.10;99.50;;;;;;5063379;28;20080;-93
2022/06/08 00:47:50;;;;;;;0.40;0.40;;;15.10;99.60;;;;;;5064509;28;20029;-93
2022/06/08 00:50:21;;;;;;;0.75;0.75;;;15.00;99.90;;;;;;5059474;28;20250;-94
2022/06/08 00:52:48;;;;;;;0.00;0.00;;;14.90;99.90;;;;;;5059472;28;20024;-94
2022/06/08 00:55:16;;;;;;;0.60;0.60;;;15.00;99.80;;;;;;5059444;28;20024;-94
2022/06/08 00:58:21;;;;;;;1.27;1.15;;;14.90;99.90;;;;;;5059239;28;20027;-94
2022/06/08 01:00:46;;;;;;;6.03;0.98;;;14.90;99.90;;;;;;5010055;28;20036;-94
2022/06/08 01:03:14;;;;;;;0.00;0.00;;;14.90;99.90;;;;;;5059141;28;20025;-93
2022/06/08 01:05:44;;;;;;;0.13;0.13;;;14.90;99.90;;;;;;5059061;28;20032;-93
2022/06/08 01:08:15;;;;;;;0.17;0.17;;;14.80;99.90;;;;;;5059201;28;20030;-94
2022/06/08 01:10:47;;;;;;;0.00;0.00;;;14.80;99.90;;;;;;5058840;28;20032;-93
2022/06/08 01:13:12;;;;;;;0.00;0.00;;;14.80;99.90;;;;;;5058645;28;20094;-93
2022/06/08 01:15:41;;;;;;;0.00;0.00;;;14.80;99.90;;;;;;5058925;28;20463;-93
2022/06/08 01:18:07;;;;;;;0.47;0.47;;;14.80;99.90;;;;;;5058968;28;20071;-93
2022/06/08 01:20:33;;;;;;;0.17;0.17;;;14.70;99.90;;;;;;5058704;28;20020;-93
2022/06/08 01:23:00;;;;;;;0.13;0.13;;;14.70;99.90;;;;;;5058503;28;20031;-93
2022/06/08 01:25:34;;;;;;;0.35;0.35;;;14.70;99.90;;;;;;5058347;28;20025;-92
2022/06/08 01:28:10;;;;;;;0.00;0.00;;;14.70;99.90;;;;;;5058422;28;20486;-92
2022/06/08 01:31:06;;;;;;;0.10;0.10;;;14.70;99.90;;;;;;5058912;28;20050;-92
2022/06/08 01:33:34;;;;;;;0.10;0.10;;;14.70;99.90;;;;;;5058124;28;20097;-92
2022/06/08 01:36:03;;;;;;;0.47;0.40;;;14.60;99.90;;;;;;5058541;28;20025;-92
2022/06/08 01:38:43;;;;;;;0.10;0.10;;;14.60;99.90;;;;;;5058696;28;20031;-92
2022/06/08 01:41:29;;;;;;;0.20;0.20;;;14.60;99.90;;;;;;5058863;28;20360;-92
2022/06/08 01:44:25;;;;;;;0.77;0.77;;;14.60;99.90;;;;;;5058064;28;20142;-92
2022/06/08 01:46:56;;;;;;;0.10;0.05;;;14.60;99.90;;;;;;5057912;28;20024;-91
2022/06/08 01:49:25;;;;;;;0.45;0.45;;;14.50;99.90;;;;;;5058269;28;20054;-92
2022/06/08 01:52:29;;;;;;;0.00;0.00;;;14.50;99.90;;;;;;5058437;28;20394;-92
2022/06/08 01:55:09;;;;;;;0.17;0.17;;;14.50;99.90;;;;;;5062829;28;20021;-91
2022/06/08 01:58:08;;;;;;;0.25;0.25;;;14.50;99.90;;;;;;5058084;28;20116;-92
2022/06/08 02:00:38;;;;;;;0.32;0.22;;;14.40;99.90;;;;;;5057871;28;20029;-92
2022/06/08 02:03:23;;;;;;;;;;;14.40;99.90;;;;;;5058227;28;20115;-92
2022/06/08 02:05:57;;;;;;;0.88;0.80;;;14.40;99.90;;;;;;5057857;28;19904;-93
2022/06/08 02:08:42;;;;;;;0.10;0.10;;;14.40;99.90;;;;;;5058408;28;20036;-93
2022/06/08 02:11:37;;;;;;;0.22;0.22;;;14.40;99.90;;;;;;5057936;28;20035;-90
2022/06/08 02:14:09;;;;;;;0.90;0.85;;;14.40;99.90;;;;;;5057824;28;20063;-91
2022/06/08 02:16:40;;;;;;;0.35;0.35;;;14.40;99.90;;;;;;5057496;28;20025;-91
2022/06/08 02:19:16;;;;;;;0.13;0.13;;;14.40;99.90;;;;;;5057726;28;20048;-91
2022/06/08 02:21:53;;;;;;;0.30;0.30;;;14.50;99.90;;;;;;5057558;28;20074;-91
2022/06/08 02:24:44;;;;;;;0.20;0.10;;;14.50;99.90;;;;;;5057460;28;20052;-91
2022/06/08 02:27:32;;;;;;;0.57;0.57;;;14.50;99.90;;;;;;5075166;28;20028;-91
2022/06/08 02:30:20;;;;;;;0.20;0.20;;;14.50;99.90;;;;;;5057453;28;20032;-92
2022/06/08 02:35:53;;;;;;;1.33;1.10;;;14.60;99.90;;;;;;5075694;28;20043;-91
2022/06/08 02:38:23;;;;;;;0.47;0.47;;;14.70;99.90;;;;;;5057276;28;20028;-91
2022/06/08 02:40:54;;;;;;;0.32;0.32;;;14.70;99.90;;;;;;5057247;28;20025;-91
2022/06/08 02:43:49;;;;;;;0.47;0.47;;;14.80;99.90;;;;;;5056904;28;20032;-91
2022/06/08 02:46:42;;;;;;;0.13;0.10;;;14.80;99.90;;;;;;5054788;28;20060;-91
2022/06/08 02:49:09;;;;;;;0.30;0.30;;;14.90;99.90;;;;;;5043864;28;20119;-92
2022/06/08 02:51:40;;;;;;;0.32;0.30;;;15.00;99.90;;;;;;5056892;28;20051;-91
2022/06/08 02:54:12;;;;;;;0.13;0.13;;;15.00;99.90;;;;;;5057000;28;20467;-92
2022/06/08 02:56:40;;;;;;;0.20;0.20;;;15.10;99.90;;;;;;5056945;28;20482;-91
2022/06/08 02:59:16;;;;;;;0.77;0.63;;;15.20;99.90;;;;;;5056763;28;20027;-92
2022/06/08 03:02:07;;;;;;;0.40;0.40;;;15.20;99.90;;;;;;5056762;28;20020;-92
2022/06/08 03:04:41;;;;;;;0.13;0.13;;;15.40;99.90;;;;;;5063866;28;20056;-91
2022/06/08 03:07:14;;;;;;;0.73;0.73;;;15.40;99.90;;;;;;5057156;28;20111;-91
2022/06/08 03:09:41;;;;;;;0.40;0.40;;;15.50;99.90;;;;;;5056584;28;20046;-91
2022/06/08 03:12:14;;;;;;;0.55;0.55;;;15.60;99.90;;;;;;5056599;28;20509;-91
2022/06/08 03:14:42;;;;;;;0.45;0.40;;;15.70;99.90;;;;;;5056605;28;20040;-91
2022/06/08 03:17:11;;;;;;;1.95;1.73;;;15.70;99.90;;;;;;5056776;28;20036;-91
2022/06/08 03:19:37;;;;;;;0.30;0.30;;;15.80;99.90;;;;;;5056922;28;20173;-91
2022/06/08 03:22:05;;;;;;;0.15;0.15;;;15.90;99.90;;;;;;5057050;28;20131;-91
2022/06/08 03:24:31;;;;;;;1.10;1.10;;;15.90;99.90;;;;;;5057007;28;20450;-91
2022/06/08 03:27:01;;;;;;;0.82;0.82;;;16.00;99.90;;;;;;5056230;28;20112;-91
2022/06/08 03:29:27;;;;;;;0.93;0.93;;;16.10;99.90;;;;;;5056943;28;20391;-91
2022/06/08 03:31:53;;;;;;;0.55;0.55;;;16.10;99.90;;;;;;5074219;28;20040;-91
2022/06/08 03:34:19;;;;;;;1.08;1.08;;;16.20;99.90;;;;;;5066417;28;20048;-91
2022/06/08 03:36:45;;;;;;;1.23;1.23;;;16.30;99.90;;;;;;5073248;28;20087;-91
2022/06/08 03:39:11;;;;;;;1.88;1.10;;;16.40;99.90;;;;;;5072908;28;20112;-91
2022/06/08 03:41:37;;;;;;;0.98;0.95;;;16.60;99.90;;;;;;5073200;28;20044;-91
2022/06/08 03:44:03;;;;;;;0.40;0.40;;;16.60;99.90;;;;;;5072739;28;20024;-91
2022/06/08 03:46:35;;;;;;;0.82;0.77;;;16.70;99.90;;;;;;5074230;28;20021;-91
2022/06/08 03:49:02;;;;;;;0.65;0.65;;;16.90;99.90;;;;;;5073000;28;20124;-92
2022/06/08 03:51:28;;;;;;;0.25;0.25;;;17.00;99.90;;;;;;5073030;28;20036;-91
2022/06/08 03:54:01;;;;;;;1.23;0.77;;;17.10;99.90;;;;;;5073302;28;20028;-91
2022/06/08 03:56:29;;;;;;;0.30;0.30;;;17.20;99.90;;;;;;5076564;28;20055;-92
2022/06/08 03:58:56;;;;;;;0.17;0.17;;;17.30;99.90;;;;;;5077178;28;20052;-92
2022/06/08 04:01:22;;;;;;;0.13;0.13;;;17.40;99.90;;;;;;5077002;28;20035;-92
2022/06/08 04:03:50;;;;;;;0.50;0.50;;;17.60;99.90;;;;;;5076781;28;20119;-92
2022/06/08 04:06:17;;;;;;;0.60;0.60;;;17.70;99.90;;;;;;5077093;28;20107;-92
2022/06/08 04:09:04;;;;;;;1.35;1.30;;;17.80;99.90;;;;;;5076860;28;20116;-92
2022/06/08 04:11:30;;;;;;;3.10;1.98;;;18.00;99.90;;;;;;5077300;28;20024;-92
2022/06/08 04:13:56;;;;;;;0.45;0.45;;;18.10;99.90;;;;;;5086290;28;20031;-92
2022/06/08 04:16:22;;;;;;;1.35;0.35;;;18.30;99.90;;;;;;5077627;28;20028;-93
2022/06/08 04:18:48;;;;;;;1.17;1.08;;;18.40;99.90;;;;;;5076493;28;20371;-92
2022/06/08 04:21:16;;;;;;;0.80;0.80;;;18.60;99.90;;;;;;5076528;28;20028;-94
2022/06/08 04:23:45;;;;;;;0.93;0.70;;;18.90;99.90;;;;;;5076638;28;20025;-94
2022/06/08 04:26:29;;;;;;;0.57;0.57;;;19.10;99.90;;;;;;5076677;28;20024;-93
2022/06/08 04:28:55;;;;;;;0.43;0.43;;;19.40;99.90;;;;;;5076407;28;20040;-94
2022/06/08 04:31:21;;;;;;;0.20;0.20;;;19.70;99.90;;;;;;5076702;28;20039;-93
2022/06/08 04:33:47;;;;;;;0.35;0.35;;;19.90;99.90;;;;;;5076500;28;20601;-94
2022/06/08 04:36:14;;;;;;;0.70;0.70;;;20.20;99.90;;;;;;5076608;28;20024;-94
2022/06/08 04:38:40;;;;;;;0.40;0.40;;;20.40;99.00;;;;;;5076714;28;20016;-94
2022/06/08 04:41:06;;;;;;;0.30;0.30;;;20.60;99.10;;;;;;5076073;28;20020;-93
2022/06/08 04:43:33;;;;;;;0.70;0.70;;;20.90;98.60;;;;;;5075941;28;20029;-94
2022/06/08 04:45:58;;;;;;;0.52;0.52;;;21.10;98.60;;;;;;5076073;28;20033;-93
2022/06/08 04:48:24;;;;;;;0.50;0.50;;;21.30;98.20;;;;;;5076519;28;20474;-93
2022/06/08 04:50:50;;;;;;;0.20;0.20;;;21.50;96.60;;;;;;5076222;28;20570;-93
2022/06/08 04:53:16;;;;;;;0.40;0.40;;;21.70;95.10;;;;;;5075913;28;20032;-93
2022/06/08 04:55:42;;;;;;;0.35;0.35;;;21.90;96.10;;;;;;5075644;28;20044;-93
2022/06/08 04:58:08;;;;;;;1.25;1.02;;;22.10;95.20;;;;;;5075398;28;20089;-94
2022/06/08 05:00:34;;;;;;;0.30;0.30;;;22.20;93.90;;;;;;5076147;28;20107;-93
2022/06/08 05:03:00;;;;;;;0.38;0.30;;;22.40;94.10;;;;;;5075693;28;20056;-93
2022/06/08 05:05:30;;;;;;;0.43;0.40;;;22.60;92.70;;;;;;5075415;28;20390;-93
2022/06/08 05:07:55;;;;;;;;;;;22.70;91.40;;;;;;5076158;28;20490;-93
2022/06/08 05:10:24;;;;;;;0.60;0.40;;;22.90;90.00;;;;;;5075921;28;19905;-93
2022/06/08 05:12:50;;;;;;;1.35;0.90;;;23.00;87.30;;;;;;5075515;28;20026;-94
2022/06/08 05:15:19;;;;;;;0.55;0.30;;;23.10;85.00;;;;;;5075791;28;20063;-93
2022/06/08 05:17:45;;;;;;;0.30;0.15;;;23.20;84.80;;;;;;5075608;28;20036;-93
2022/06/08 05:20:13;;;;;;;1.10;0.80;;;23.30;84.80;;;;;;5075490;28;20048;-94
2022/06/08 05:22:39;;;;;;;0.00;0.00;;;23.40;84.30;;;;;;5076142;28;20035;-94
2022/06/08 05:25:07;;;;;;;0.75;0.75;;;23.50;83.00;;;;;;5074609;28;20028;-95
2022/06/08 05:27:34;;;;;;;1.75;0.35;;;23.60;81.90;;;;;;5074922;28;20017;-95
2022/06/08 05:30:00;;;;;;;0.70;0.63;;;23.70;78.80;;;;;;5074868;28;20028;-94
2022/06/08 05:32:25;;;;;;;0.60;0.60;;;23.80;76.80;;;;;;5076877;28;20115;-93
2022/06/08 05:34:51;;;;;;;0.75;0.75;;;23.80;78.90;;;;;;5076252;28;20056;-94
2022/06/08 05:37:17;;;;;;;0.00;0.00;;;23.90;87.10;;;;;;5075160;28;20028;-94
2022/06/08 05:39:42;;;;;;;1.25;1.15;;;24.00;88.40;;;;;;5075106;28;20029;-91
2022/06/08 17:07:56;;;;;;;0.00;0.00;;;25.90;52.00;;;;;;5093701;27;20402;-94
2022/06/08 17:10:22;;;;;;;0.00;0.00;;;25.20;54.80;;;;;;5091146;28;20024;-94
2022/06/08 17:12:50;;;;;;;0.38;0.38;;;25.00;53.90;;;;;;5090776;28;20029;-93
2022/06/08 17:15:16;;;;;;;0.00;0.00;;;24.80;55.40;;;;;;5090652;28;20028;-93
2022/06/08 17:17:42;;;;;;;0.10;0.10;;;24.70;54.70;;;;;;5090901;28;20021;-94
2022/06/08 17:20:10;;;;;;;0.55;0.55;;;24.60;56.00;;;;;;5090591;28;20111;-94
2022/06/08 17:22:37;;;;;;;0.17;0.15;;;24.60;54.50;;;;;;5090493;28;20025;-94
2022/06/08 17:25:09;;;;;;;0.22;0.20;;;24.50;56.40;;;;;;5090841;28;20048;-93
2022/06/08 17:27:35;;;;;;;1.45;0.95;;;24.50;56.20;;;;;;5090435;28;20035;-94
2022/06/08 17:30:03;;;;;;;0.20;0.20;;;24.40;56.00;;;;;;5090658;28;20474;-94
2022/06/08 17:32:28;;;;;;;0.08;0.08;;;24.30;57.30;;;;;;5090526;28;20028;-94
2022/06/08 17:34:54;;;;;;;0.75;0.45;;;24.20;57.40;;;;;;5090305;28;20050;-94
2022/06/08 17:37:19;;;;;;;0.30;0.30;;;24.10;57.00;;;;;;5090423;28;20029;-94
2022/06/08 17:39:46;;;;;;;2.25;0.75;;;24.00;57.30;;;;;;5090810;28;20024;-94
2022/06/08 17:42:21;;;;;;;0.10;0.10;;;23.90;57.90;;;;;;5090424;28;20024;-94
2022/06/08 17:44:51;;;;;;;0.55;0.55;;;23.90;58.40;;;;;;5090394;28;20453;-93
2022/06/08 17:47:20;;;;;;;0.65;0.52;;;23.80;58.50;;;;;;5090038;28;20028;-94
2022/06/08 17:49:46;;;;;;;0.20;0.20;;;23.70;58.90;;;;;;5090204;28;20074;-93
2022/06/08 17:52:12;;;;;;;0.73;0.73;;;23.60;59.20;;;;;;5089975;28;20112;-94
2022/06/08 17:54:38;;;;;;;0.00;0.00;;;23.50;59.00;;;;;;5089838;28;20078;-93
2022/06/08 17:57:05;;;;;;;0.10;0.10;;;23.40;61.00;;;;;;5089767;28;20036;-93
2022/06/08 17:59:31;;;;;;;0.65;0.65;;;23.20;61.50;;;;;;5090564;28;20031;-94
2022/06/08 18:01:56;;;;;;;0.63;0.30;;;23.10;60.80;;;;;;5089894;28;20029;-95
2022/06/08 18:04:22;;;;;;;0.17;0.17;;;23.00;60.60;;;;;;5094867;28;20095;-93
2022/06/08 18:06:49;;;;;;;0.57;0.57;;;23.00;60.50;;;;;;5094696;28;20044;-93
2022/06/08 18:09:17;;;;;;;1.05;0.55;;;22.90;60.80;;;;;;5089826;28;20085;-93
2022/06/08 18:11:57;;;;;;;0.32;0.32;;;22.80;61.70;;;;;;5089752;28;20111;-94
2022/06/08 18:14:38;;;;;;;0.17;0.17;;;22.70;61.50;;;;;;5089608;28;20017;-93
2022/06/08 18:17:05;;;;;;;0.28;0.28;;;22.60;62.30;;;;;;5089289;28;20024;-93
2022/06/08 18:19:31;;;;;;;2.45;0.32;;;22.50;62.60;;;;;;5075648;28;20031;-93
2022/06/08 18:21:57;;;;;;;1.55;0.65;;;22.30;62.80;;;;;;5075994;28;20033;-93
2022/06/08 18:24:24;;;;;;;0.00;0.00;;;22.20;62.40;;;;;;5076265;28;20490;-93
2022/06/08 18:26:56;;;;;;;0.13;0.13;;;22.20;62.20;;;;;;5076008;28;20467;-94
2022/06/08 18:29:27;;;;;;;1.27;0.55;;;22.10;62.60;;;;;;5075957;28;20048;-94
2022/06/08 18:31:53;;;;;;;0.10;0.10;;;22.00;63.10;;;;;;5075991;28;20490;-93
2022/06/08 18:34:19;;;;;;;0.10;0.10;;;21.90;63.80;;;;;;5075830;28;20070;-94
2022/06/08 18:36:45;;;;;;;0.00;0.00;;;21.80;62.90;;;;;;5075950;28;20024;-94
2022/06/08 18:39:11;;;;;;;0.47;0.38;;;21.80;62.90;;;;;;5075578;28;20120;-94
2022/06/08 18:41:37;;;;;;;0.32;0.32;;;21.70;63.50;;;;;;5075594;28;20067;-94
2022/06/08 18:44:05;;;;;;;0.03;0.03;;;21.60;63.80;;;;;;5075779;28;20060;-94
2022/06/08 18:46:31;;;;;;;0.30;0.20;;;21.50;63.70;;;;;;5075745;28;20025;-93
2022/06/08 18:48:57;;;;;;;0.10;0.10;;;21.40;64.10;;;;;;5075623;28;20056;-94
2022/06/08 18:51:25;;;;;;;0.60;0.20;;;21.40;64.80;;;;;;5075461;28;20538;-93
2022/06/08 18:53:51;;;;;;;0.00;0.00;;;21.30;66.00;;;;;;5076451;28;20025;-93
2022/06/08 18:56:19;;;;;;;0.03;0.03;;;21.20;66.30;;;;;;5076569;28;20032;-93
2022/06/08 18:58:49;;;;;;;0.45;0.40;;;21.10;66.10;;;;;;5075188;28;20024;-91
2022/06/08 19:01:18;;;;;;;0.10;0.10;;;21.10;66.30;;;;;;5076372;28;20024;-89
2022/06/08 19:03:49;;;;;;;0.20;0.20;;;21.10;65.70;;;;;;5076241;28;20029;-88
2022/06/08 19:06:17;;;;;;;0.00;0.00;;;21.00;66.90;;;;;;5075621;28;20186;-88
2022/06/08 19:08:43;;;;;;;67.13;1.63;;;20.90;66.40;;;;;;5074971;28;20020;-88
2022/06/08 19:11:13;;;;;;;0.10;0.10;;;20.80;67.30;;;;;;5074838;28;20054;-88
2022/06/08 19:13:39;;;;;;;1.23;1.00;;;20.80;67.50;;;;;;5074838;28;20098;-87
2022/06/08 19:16:05;;;;;;;0.10;0.10;;;20.70;67.50;;;;;;5075599;28;20032;-87
2022/06/08 19:21:15;;;;;;;0.05;0.05;;;20.60;68.80;;;;;;5075984;28;20147;-87
2022/06/08 19:23:46;;;;;;;0.00;0.00;;;20.50;68.80;;;;;;5075702;28;20489;-87
2022/06/08 19:28:08;;;;;;;0.32;0.32;;;20.50;68.40;;;;;;5112424;27;20387;-84
2022/06/08 19:30:52;;;;;;;0.00;0.00;;;20.40;69.80;;;;;;5110922;28;20028;-85
2022/06/08 19:33:27;;;;;;;0.00;0.00;;;20.30;70.80;;;;;;5112019;28;20024;-85
2022/06/08 19:35:53;;;;;;;0.43;0.40;;;20.30;70.60;;;;;;5111970;28;20048;-85
2022/06/08 19:38:21;;;;;;;0.65;0.65;;;20.20;70.80;;;;;;5110589;28;20016;-84
2022/06/08 19:40:47;;;;;;;0.35;0.35;;;20.20;71.00;;;;;;5110858;28;20026;-84
2022/06/08 19:43:14;;;;;;;0.00;0.00;;;20.10;71.60;;;;;;5110536;28;20023;-85
2022/06/08 19:45:41;;;;;;;0.10;0.10;;;20.10;72.10;;;;;;5110711;28;20016;-87
2022/06/08 19:48:07;;;;;;;0.38;0.38;;;20.00;72.50;;;;;;5111263;28;20028;-87
2022/06/08 19:50:33;;;;;;;0.03;0.03;;;20.00;73.50;;;;;;5110860;28;20023;-86
2022/06/08 19:52:59;;;;;;;0.00;0.00;;;19.90;73.00;;;;;;5110692;28;20024;-87
2022/06/08 19:55:25;;;;;;;0.00;0.00;;;19.80;73.10;;;;;;5111957;28;20027;-87
2022/06/08 19:57:51;;;;;;;0.10;0.00;;;19.80;73.70;;;;;;5110612;28;20073;-89
2022/06/08 20:00:18;;;;;;;0.10;0.10;;;19.80;74.30;;;;;;5110678;28;20024;-87
2022/06/08 20:02:44;;;;;;;0.00;0.00;;;19.70;75.00;;;;;;5110499;28;20173;-87
2022/06/08 20:05:11;;;;;;;0.63;0.63;;;19.70;74.80;;;;;;5110523;28;20115;-87
2022/06/08 20:07:37;;;;;;;0.52;0.40;;;19.60;75.20;;;;;;5110519;28;20024;-87
2022/06/08 20:10:04;;;;;;;0.10;0.10;;;19.60;75.70;;;;;;5108898;28;20030;-87
2022/06/08 20:12:31;;;;;;;0.20;0.20;;;19.60;75.80;;;;;;5110081;28;20024;-87
2022/06/08 20:14:57;;;;;;;0.13;0.13;;;19.50;76.40;;;;;;5109881;28;20023;-87
2022/06/08 20:17:24;;;;;;;0.35;0.35;;;19.50;76.60;;;;;;5109916;28;20378;-87
2022/06/08 20:19:51;;;;;;;0.65;0.50;;;19.40;77.20;;;;;;5109804;28;20473;-87
2022/06/08 20:22:17;;;;;;;0.10;0.10;;;19.40;78.40;;;;;;5109682;28;20359;-89
2022/06/08 20:24:43;;;;;;;1.45;0.55;;;19.30;78.10;;;;;;5112005;28;20026;-90
2022/06/08 20:27:08;;;;;;;0.00;0.00;;;19.30;77.90;;;;;;5109052;28;20058;-89
2022/06/08 20:29:34;;;;;;;0.10;0.10;;;19.30;78.20;;;;;;5109242;28;20024;-89
2022/06/08 20:32:02;;;;;;;0.43;0.43;;;19.20;79.20;;;;;;5109455;28;20059;-89
2022/06/08 20:34:28;;;;;;;0.28;0.28;;;19.10;79.00;;;;;;5109578;28;20020;-89
2022/06/08 20:36:54;;;;;;;0.80;0.75;;;19.10;79.60;;;;;;5109487;28;20048;-89
2022/06/08 20:39:22;;;;;;;0.10;0.10;;;19.10;80.20;;;;;;5096587;28;20423;-90
2022/06/08 20:41:48;;;;;;;0.10;0.10;;;19.10;80.80;;;;;;5097258;28;20016;-89
2022/06/08 20:44:17;;;;;;;0.00;0.00;;;19.00;81.10;;;;;;5095753;28;20028;-90
2022/06/08 20:46:43;;;;;;;0.68;0.68;;;18.90;81.00;;;;;;5095967;28;20020;-90
2022/06/08 20:49:09;;;;;;;0.00;0.00;;;18.90;81.60;;;;;;5097500;28;20477;-91
2022/06/08 20:51:35;;;;;;;0.03;0.03;;;18.90;81.10;;;;;;5096586;28;20020;-90
2022/06/08 20:54:02;;;;;;;0.47;0.47;;;18.80;82.50;;;;;;5096592;28;20021;-90
2022/06/08 20:56:28;;;;;;;0.32;0.32;;;18.80;82.30;;;;;;5096072;28;20475;-90
2022/06/08 20:58:54;;;;;;;0.70;0.70;;;18.80;82.30;;;;;;5097172;28;20036;-90
2022/06/08 21:01:20;;;;;;;0.20;0.20;;;18.70;82.90;;;;;;5096467;28;20028;-90
2022/06/08 21:03:46;;;;;;;0.82;0.82;;;18.70;84.50;;;;;;5095864;28;20428;-90
2022/06/08 21:06:13;;;;;;;0.20;0.20;;;18.70;84.10;;;;;;5095866;28;20024;-90
2022/06/08 21:08:43;;;;;;;0.17;0.17;;;18.60;86.40;;;;;;5095809;28;20024;-90
2022/06/08 21:11:21;;;;;;;0.17;0.17;;;18.60;85.20;;;;;;5095835;28;20107;-90
2022/06/08 21:13:46;;;;;;;1.08;0.65;;;18.50;85.30;;;;;;5095891;28;20063;-91
2022/06/08 21:16:12;;;;;;;1.65;0.80;;;18.50;85.60;;;;;;5095287;28;20059;-90
2022/06/08 21:18:38;;;;;;;0.20;0.20;;;18.50;85.80;;;;;;5095861;28;20028;-90
2022/06/08 21:21:06;;;;;;;0.65;0.65;;;18.40;86.10;;;;;;5096957;28;20031;-90
2022/06/08 21:23:32;;;;;;;0.03;0.03;;;18.40;86.90;;;;;;5095388;28;20024;-90
2022/06/08 21:26:00;;;;;;;0.30;0.30;;;18.40;88.10;;;;;;5095263;28;20039;-91
2022/06/08 21:28:26;;;;;;;0.52;0.40;;;18.30;87.50;;;;;;5095484;28;20477;-89
2022/06/08 21:30:52;;;;;;;0.00;0.00;;;18.30;87.30;;;;;;5095675;28;20081;-90
2022/06/08 21:33:17;;;;;;;0.35;0.28;;;18.30;88.90;;;;;;5096516;28;20024;-90
2022/06/08 21:35:43;;;;;;;0.20;0.20;;;18.20;88.60;;;;;;5095448;28;20050;-90
2022/06/08 21:38:11;;;;;;;1.08;0.98;;;18.20;89.30;;;;;;5096357;28;20480;-90
2022/06/08 21:40:37;;;;;;;0.32;0.32;;;18.20;89.60;;;;;;5095098;28;20390;-90
2022/06/08 21:43:05;;;;;;;0.32;0.32;;;18.10;90.00;;;;;;5094990;28;20477;-90
2022/06/08 21:45:35;;;;;;;0.30;0.30;;;18.10;89.80;;;;;;5096165;28;20028;-90
2022/06/08 21:48:02;;;;;;;0.43;0.43;;;18.10;89.50;;;;;;5094934;28;20028;-90
2022/06/08 21:50:28;;;;;;;0.20;0.20;;;18.10;90.30;;;;;;5093973;28;20115;-90
2022/06/08 21:52:54;;;;;;;0.20;0.20;;;18.00;91.20;;;;;;5094922;28;20016;-90
2022/06/08 21:55:23;;;;;;;0.13;0.13;;;18.00;91.40;;;;;;5094975;28;20024;-90
2022/06/08 21:57:51;;;;;;;0.57;0.35;;;18.00;91.30;;;;;;5095905;28;20466;-90
2022/06/08 22:00:23;;;;;;;0.47;0.47;;;18.00;91.60;;;;;;5094936;28;20020;-90
2022/06/08 22:02:52;;;;;;;0.10;0.10;;;17.90;91.50;;;;;;5094661;28;20031;-90
2022/06/08 22:05:26;;;;;;;0.65;0.47;;;17.90;91.70;;;;;;5094517;28;20055;-90
2022/06/08 22:07:52;;;;;;;0.10;0.10;;;17.90;92.10;;;;;;5094829;28;20473;-90
2022/06/08 22:10:19;;;;;;;0.35;0.35;;;17.90;92.20;;;;;;5095023;28;20122;-90
2022/06/08 22:12:45;;;;;;;0.10;0.10;;;17.90;92.50;;;;;;5095737;28;20404;-90
2022/06/08 22:15:17;;;;;;;0.10;0.10;;;17.90;93.00;;;;;;5094589;28;20017;-90
2022/06/08 22:17:44;;;;;;;0.30;0.30;;;17.80;93.30;;;;;;5094512;28;20412;-90
2022/06/08 22:20:15;;;;;;;3.70;1.40;;;17.80;94.40;;;;;;5095163;28;20028;-90
2022/06/08 22:22:41;;;;;;;0.55;0.55;;;17.90;95.60;;;;;;5095609;28;20087;-90
2022/06/08 22:25:07;;;;;;;0.28;0.20;;;17.80;95.50;;;;;;5094296;28;20028;-90
2022/06/08 22:27:33;;;;;;;0.77;0.28;;;17.80;95.70;;;;;;5094059;28;20048;-90
2022/06/08 22:29:59;;;;;;;0.17;0.17;;;17.90;96.40;;;;;;5095587;28;20102;-90
2022/06/08 22:32:25;;;;;;;0.00;0.00;;;17.90;96.60;;;;;;5094330;28;20424;-90
2022/06/08 22:34:51;;;;;;;0.20;0.20;;;17.80;96.60;;;;;;5094062;28;20111;-90
2022/06/08 22:37:17;;;;;;;0.08;0.08;;;17.80;97.30;;;;;;5094146;28;20028;-90
2022/06/08 22:39:43;;;;;;;0.00;0.00;;;17.80;97.30;;;;;;5094110;28;20359;-90
2022/06/08 22:42:09;;;;;;;1.55;0.70;;;17.80;97.50;;;;;;5096914;28;20038;-90
2022/06/08 22:44:35;;;;;;;0.32;0.32;;;17.80;98.00;;;;;;5094207;28;20024;-90
2022/06/08 22:47:01;;;;;;;0.73;0.73;;;17.80;97.80;;;;;;5095125;28;20099;-90
2022/06/08 22:49:27;;;;;;;0.22;0.22;;;17.80;98.20;;;;;;5095243;28;20025;-90
2022/06/08 22:51:53;;;;;;;0.03;0.03;;;17.70;98.20;;;;;;5093820;28;20425;-90
2022/06/08 22:54:19;;;;;;;0.40;0.40;;;17.80;99.10;;;;;;5094007;28;20023;-90
2022/06/08 22:56:45;;;;;;;0.20;0.20;;;17.70;99.40;;;;;;5093836;28;20024;-90
2022/06/08 22:59:10;;;;;;;1.00;0.40;;;17.70;99.80;;;;;;5093936;28;20073;-90
2022/06/08 23:01:36;;;;;;;0.70;0.70;;;17.80;99.90;;;;;;5093696;28;20024;-91
2022/06/08 23:04:02;;;;;;;0.30;0.30;;;17.80;99.90;;;;;;5093733;28;20024;-90
2022/06/08 23:06:28;;;;;;;0.10;0.10;;;17.80;99.90;;;;;;5093628;28;20419;-90
2022/06/08 23:08:53;;;;;;;0.65;0.30;;;17.80;99.90;;;;;;5093668;28;20024;-90
2022/06/08 23:14:03;;;;;;;0.10;0.10;;;17.80;99.90;;;;;;5094650;28;20028;-90
2022/06/08 23:21:58;;;;;;;0.22;0.20;;;17.90;99.90;;;;;;5094965;28;20118;-89
2022/06/08 23:24:24;;;;;;;0.10;0.10;;;17.80;99.90;;;;;;5093443;28;20061;-89
2022/06/08 23:26:51;;;;;;;0.38;0.22;;;17.80;99.90;;;;;;5094454;28;20056;-90
2022/06/08 23:29:17;;;;;;;0.03;0.03;;;17.80;99.90;;;;;;5093387;28;20027;-89
2022/06/08 23:31:43;;;;;;;0.20;0.20;;;17.80;99.90;;;;;;5094533;28;20047;-89
2022/06/08 23:34:09;;;;;;;0.13;0.13;;;17.80;99.90;;;;;;5093205;28;20478;-89
2022/06/08 23:36:35;;;;;;;0.10;0.10;;;17.80;99.90;;;;;;5093433;28;20542;-89
2022/06/08 23:39:01;;;;;;;0.05;0.05;;;17.80;99.90;;;;;;5093363;28;20119;-89
2022/06/08 23:41:27;;;;;;;0.08;0.08;;;17.70;99.90;;;;;;5093132;28;20116;-90
2022/06/08 23:43:53;;;;;;;0.35;0.35;;;17.70;99.90;;;;;;5093238;28;20028;-90
2022/06/08 23:46:18;;;;;;;0.00;0.00;;;17.70;99.90;;;;;;5093165;28;20035;-89
2022/06/08 23:48:45;;;;;;;0.17;0.17;;;17.60;99.90;;;;;;5093401;28;20081;-90
2022/06/08 23:51:13;;;;;;;0.00;0.00;;;17.60;99.90;;;;;;5095135;28;20028;-90
2022/06/08 23:53:46;;;;;;;0.00;0.00;;;17.60;99.90;;;;;;5093655;28;20089;-89
2022/06/08 23:56:13;;;;;;;0.00;0.00;;;17.60;99.90;;;;;;5093291;28;20055;-89
2022/06/08 23:58:39;;;;;;;0.05;0.05;;;17.50;99.90;;;;;;5094404;28;20073;-89
